Airfield :
LOGIN :

Register | Disclaimer

   EN    FR    IT 

 










Legend :    VFR   Marginal VFR   IFR   Intensive IFR   Very Intensive IFR
Visi :
Ceiling :
>= 8 km
>= 3000ft
5 to 8 km
1000 to 3000 ft
1500m to 5 km
500 to 1000 ft
800 to 1500m
200 to 500 ft
< 800m
< 200 ft
Symbols :   Thunderstorms  Fog  Heavy snow  Heavy precipitations  Wind > 20 kt
SIGMETs :     Misc.  Thunderstorms  Icing  Turbulence  Mountain Waves  Volcanic Ashes






- Airport Elevation : 1568 ft


ETSB - Büchel AB

CURRENT METAR :
  • 021620Z AUTO 27008KT 9999 // ////// 10/M04 Q1010 ///

EXPIRED METARs :
  • 021600Z 29007KT 9999 FEW040 10/M05 Q1010 BLU+FCST CANCEL
  • 021520Z 26007KT 9999 FEW040 11/M06 Q1010 BLU+BLU+
  • 021420Z 30008KT 9999 FEW040 11/M05 Q1010 BLU+BLU+

TAF AMD TAF ETSB
Valid from the 02 at 15:00 until the 02 at 23:00 UTC


021558Z 0215/0223 29008KT 9999 NSW FEW040
BECMG 0218/0220 26008KT 9999 NSW FEW020 BKN030 CANCEL 1600 BY ETGL



MET'MAP, your aeronautical weather chart ! - Copyright ORBIFLY December 2007 - Disclaimer

ORBIFLY MET'MAP TEAM :

Programming & Development : Alexandra Zaïnal
Concept & original design : Baudouin d'Aumeries
Assistance for programming : Marc-Olivier Méhu
Technical & hardware support : Manuel Goepfert

Contact : metmap@orbifly.com




SOURCES & CREDITS :

   NOAA